Time;durP1;ratioP1;P1;durP2;ratioP2;P2;SDS_P1;SDS_P2;PMS_P1;PMS_P2;Temp;Humidity;BMP_temperature;BMP_pressure;BME280_temperature;BME280_humidity;BME280_pressure;Samples;Min_cycle;Max_cycle;Signal;HPM_P1;HPM_P2
2022/08/08 00:00:51;;;;;;;0.53;0.53;;;;;16.90;96432.00;;;;5113679;28;20190;-53
2022/08/08 00:03:24;;;;;;;0.70;0.70;;;;;16.90;96425.00;;;;5113673;28;20225;-49
2022/08/08 00:05:55;;;;;;;0.50;0.50;;;;;16.80;96420.00;;;;5113570;28;20199;-49
2022/08/08 00:08:28;;;;;;;0.50;0.50;;;;;16.70;96427.00;;;;5113529;28;20254;-49
2022/08/08 00:11:01;;;;;;;0.80;0.80;;;;;16.50;96423.00;;;;5113424;28;20226;-49
2022/08/08 00:13:32;;;;;;;0.43;0.43;;;;;16.60;96423.00;;;;5113539;28;20178;-49
2022/08/08 00:16:05;;;;;;;0.50;0.50;;;;;16.60;96418.00;;;;5113709;28;20221;-49
2022/08/08 00:18:43;;;;;;;0.40;0.40;;;;;16.60;96419.00;;;;5117248;28;20285;-49
2022/08/08 00:21:16;;;;;;;0.57;0.57;;;;;16.60;96422.00;;;;5098822;28;20313;-48
2022/08/08 00:23:47;;;;;;;0.40;0.40;;;;;16.60;96412.00;;;;5116917;28;20202;-49
2022/08/08 00:26:19;;;;;;;0.40;0.40;;;;;16.60;96421.00;;;;5116891;28;20193;-49
2022/08/08 00:28:51;;;;;;;0.80;0.80;;;;;16.60;96426.00;;;;5116945;28;20208;-49
2022/08/08 00:31:23;;;;;;;0.80;0.80;;;;;16.50;96424.00;;;;5116875;28;20205;-49
2022/08/08 00:37:02;;;;;;;0.40;0.40;;;;;16.50;96421.00;;;;5098773;28;20226;-49
2022/08/08 00:39:35;;;;;;;0.60;0.60;;;;;16.40;96431.00;;;;5116682;28;20186;-48
2022/08/08 00:42:30;;;;;;;0.63;0.63;;;;;16.20;96436.00;;;;5116593;28;20274;-49
2022/08/08 00:45:20;;;;;;;0.57;0.57;;;;;16.10;96439.00;;;;5116525;28;20222;-49
2022/08/08 00:48:15;;;;;;;0.73;0.73;;;;;15.90;96439.00;;;;5098520;28;20206;-49
2022/08/08 00:51:19;;;;;;;0.50;0.50;;;;;15.90;96436.00;;;;5116528;28;20194;-48
2022/08/08 00:54:11;;;;;;;0.97;0.97;;;;;15.70;96439.00;;;;5116427;28;20200;-50
2022/08/08 00:57:20;;;;;;;0.53;0.53;;;;;15.60;96433.00;;;;5116397;28;20237;-49
2022/08/08 01:00:07;;;;;;;0.50;0.50;;;;;15.70;96435.00;;;;5116273;28;20221;-49
2022/08/08 01:03:26;;;;;;;0.57;0.57;;;;;15.80;96440.00;;;;5116288;28;20237;-50
2022/08/08 01:06:35;;;;;;;0.80;0.80;;;;;15.70;96444.00;;;;5116295;28;20301;-49
2022/08/08 01:09:35;;;;;;;0.50;0.50;;;;;15.80;96442.00;;;;5116301;28;20391;-49
2022/08/08 01:12:47;;;;;;;0.60;0.60;;;;;15.70;96441.00;;;;5056607;28;20241;-50
2022/08/08 01:16:06;;;;;;;0.50;0.50;;;;;15.80;96430.00;;;;5064860;28;20220;-49
2022/08/08 01:19:11;;;;;;;0.40;0.40;;;;;15.70;96443.00;;;;5014024;28;20205;-55
2022/08/08 01:22:03;;;;;;;0.70;0.70;;;;;15.70;96441.00;;;;5103777;28;20218;-52
2022/08/08 01:25:06;;;;;;;0.57;0.57;;;;;15.60;96442.00;;;;5116119;28;20293;-52
2022/08/08 01:28:09;;;;;;;0.50;0.50;;;;;15.60;96432.00;;;;5094423;28;20270;-49
2022/08/08 01:31:11;;;;;;;0.60;0.60;;;;;15.60;96445.00;;;;5099796;28;20239;-49
2022/08/08 01:34:11;;;;;;;0.63;0.63;;;;;15.50;96442.00;;;;5107453;28;20230;-49
2022/08/08 01:37:08;;;;;;;0.60;0.60;;;;;15.40;96439.00;;;;5097845;28;20262;-49
2022/08/08 01:39:53;;;;;;;0.50;0.50;;;;;15.30;96440.00;;;;5115670;28;20217;-49
2022/08/08 01:42:27;;;;;;;0.97;0.90;;;;;15.30;96443.00;;;;5115695;28;20557;-49
2022/08/08 01:45:05;;;;;;;0.50;0.50;;;;;15.30;96445.00;;;;5115661;28;20221;-49
2022/08/08 01:47:58;;;;;;;0.60;0.60;;;;;15.30;96444.00;;;;5115658;28;20208;-49
2022/08/08 01:50:51;;;;;;;0.53;0.53;;;;;15.40;96452.00;;;;5115555;28;20210;-49
2022/08/08 01:53:55;;;;;;;0.60;0.60;;;;;15.30;96447.00;;;;5097629;28;20519;-51
2022/08/08 01:56:31;;;;;;;0.60;0.60;;;;;15.00;96445.00;;;;5115475;28;20228;-49
2022/08/08 01:59:13;;;;;;;0.60;0.60;;;;;14.90;96445.00;;;;5115420;28;20300;-49
2022/08/08 02:02:07;;;;;;;0.50;0.50;;;;;14.90;96442.00;;;;5115247;28;20260;-48
2022/08/08 02:04:42;;;;;;;0.50;0.50;;;;;14.90;96445.00;;;;5115492;28;20277;-49
2022/08/08 02:07:21;;;;;;;0.50;0.50;;;;;14.90;96438.00;;;;5097275;28;20263;-51
2022/08/08 02:10:06;;;;;;;0.60;0.60;;;;;14.80;96432.00;;;;5097497;28;20292;-49
2022/08/08 02:12:47;;;;;;;0.50;0.50;;;;;14.80;96436.00;;;;5115237;28;20218;-49
2022/08/08 02:15:23;;;;;;;0.60;0.60;;;;;14.70;96428.00;;;;5115237;28;20273;-49
2022/08/08 02:17:57;;;;;;;0.50;0.50;;;;;14.70;96428.00;;;;5115107;28;20208;-49
2022/08/08 02:22:30;;;;;;;0.60;0.60;;;;;14.50;96426.00;;;;5097342;28;20208;-49
2022/08/08 02:23:44;;;;;;;0.60;0.60;;;;;14.40;96430.00;;;;5114752;28;20228;-48
2022/08/08 02:26:23;;;;;;;0.83;0.83;;;;;14.30;96428.00;;;;5115085;28;20500;-48
2022/08/08 02:29:31;;;;;;;0.60;0.60;;;;;14.40;96425.00;;;;5114994;28;20639;-47
2022/08/08 02:32:20;;;;;;;0.60;0.60;;;;;14.40;96428.00;;;;5064224;28;20217;-48
2022/08/08 02:35:16;;;;;;;0.50;0.50;;;;;14.40;96425.00;;;;5114720;28;20229;-48
2022/08/08 02:38:18;;;;;;;0.50;0.50;;;;;14.30;96427.00;;;;5112250;28;20657;-50
2022/08/08 02:41:14;;;;;;;0.50;0.50;;;;;14.20;96422.00;;;;5113580;28;20297;-50
2022/08/08 02:44:19;;;;;;;0.40;0.40;;;;;14.10;96421.00;;;;5114611;28;20229;-49
2022/08/08 02:46:58;;;;;;;2.77;1.00;;;;;13.90;96427.00;;;;5114505;28;20230;-49
2022/08/08 02:50:01;;;;;;;0.50;0.50;;;;;13.90;96425.00;;;;5114603;28;20189;-49
2022/08/08 02:52:52;;;;;;;0.50;0.50;;;;;14.00;96419.00;;;;5063581;28;20282;-50
2022/08/08 02:55:52;;;;;;;0.47;0.47;;;;;14.00;96439.00;;;;5096668;28;20234;-56
2022/08/08 02:59:04;;;;;;;0.50;0.50;;;;;14.10;96426.00;;;;5109747;28;20328;-51
2022/08/08 03:02:06;;;;;;;0.90;0.90;;;;;14.00;96428.00;;;;5114289;28;20186;-51
2022/08/08 03:05:13;;;;;;;0.50;0.50;;;;;14.00;96417.00;;;;5114425;28;20170;-49
2022/08/08 03:08:32;;;;;;;0.60;0.60;;;;;14.00;96420.00;;;;5071794;28;20589;-49
2022/08/08 03:11:49;;;;;;;0.80;0.80;;;;;13.80;96425.00;;;;5114330;28;20194;-51
2022/08/08 03:14:50;;;;;;;0.50;0.50;;;;;13.80;96422.00;;;;5114237;28;20218;-47
2022/08/08 03:17:23;;;;;;;0.60;0.60;;;;;13.70;96426.00;;;;5114249;28;20209;-49
2022/08/08 03:20:04;;;;;;;0.50;0.50;;;;;13.80;96433.00;;;;5114074;28;20245;-49
2022/08/08 03:22:31;;;;;;;0.50;0.50;;;;;13.70;96432.00;;;;5114008;28;20220;-48
2022/08/08 03:25:00;;;;;;;0.50;0.50;;;;;13.60;96437.00;;;;5114005;28;20220;-49
2022/08/08 03:27:32;;;;;;;0.60;0.60;;;;;13.60;96432.00;;;;5114020;28;20222;-49
2022/08/08 03:30:04;;;;;;;1.97;1.27;;;;;13.60;96437.00;;;;5096015;28;20208;-49
2022/08/08 03:35:18;;;;;;;0.60;0.60;;;;;13.60;96439.00;;;;5113941;28;20198;-49
2022/08/08 03:37:48;;;;;;;0.50;0.50;;;;;13.60;96431.00;;;;5095811;28;20226;-49
2022/08/08 03:40:16;;;;;;;0.50;0.50;;;;;13.50;96440.00;;;;5113812;28;20576;-49
2022/08/08 03:42:43;;;;;;;0.60;0.60;;;;;13.40;96439.00;;;;5095755;28;20531;-48
2022/08/08 03:45:16;;;;;;;1.03;0.97;;;;;13.30;96436.00;;;;5113627;28;20191;-48
2022/08/08 03:47:43;;;;;;;0.50;0.50;;;;;13.40;96436.00;;;;5113595;28;20221;-48
2022/08/08 03:50:17;;;;;;;0.53;0.53;;;;;13.20;96441.00;;;;5113826;28;20280;-49
2022/08/08 03:52:44;;;;;;;0.60;0.60;;;;;13.20;96443.00;;;;5095350;28;20210;-48
2022/08/08 03:55:12;;;;;;;0.50;0.50;;;;;13.20;96445.00;;;;5113656;28;20186;-48
2022/08/08 03:57:45;;;;;;;0.60;0.60;;;;;13.30;96446.00;;;;5113648;28;20205;-49
2022/08/08 04:00:16;;;;;;;0.70;0.70;;;;;13.40;96443.00;;;;5113671;28;20543;-48
2022/08/08 04:02:43;;;;;;;0.73;0.73;;;;;13.40;96449.00;;;;5113546;28;20225;-49
2022/08/08 04:05:12;;;;;;;0.50;0.50;;;;;13.30;96447.00;;;;5113366;28;20218;-48
2022/08/08 04:07:39;;;;;;;0.50;0.50;;;;;13.30;96452.00;;;;5113767;28;20518;-48
2022/08/08 04:10:09;;;;;;;0.50;0.50;;;;;13.30;96450.00;;;;5113410;28;20218;-49
2022/08/08 04:12:36;;;;;;;0.60;0.60;;;;;13.30;96442.00;;;;5113425;28;20651;-51
2022/08/08 04:15:05;;;;;;;0.60;0.60;;;;;13.20;96453.00;;;;5113513;28;20208;-49
2022/08/08 04:17:31;;;;;;;0.50;0.50;;;;;13.10;96457.00;;;;5113493;28;20508;-50
2022/08/08 04:19:58;;;;;;;0.50;0.50;;;;;13.10;96455.00;;;;5113435;28;20193;-49
2022/08/08 04:22:27;;;;;;;0.70;0.70;;;;;13.10;96457.00;;;;5113299;28;20218;-51
2022/08/08 04:24:54;;;;;;;0.60;0.60;;;;;13.10;96451.00;;;;5095368;28;20190;-49
2022/08/08 04:27:21;;;;;;;0.40;0.40;;;;;13.10;96453.00;;;;5113214;28;20226;-48
2022/08/08 04:29:48;;;;;;;0.50;0.50;;;;;13.10;96452.00;;;;5113146;28;20539;-48
2022/08/08 04:32:15;;;;;;;1.33;0.97;;;;;13.00;96453.00;;;;5113063;28;20300;-48
2022/08/08 04:34:44;;;;;;;0.60;0.60;;;;;13.10;96460.00;;;;5113202;28;20198;-48
2022/08/08 04:37:11;;;;;;;0.70;0.70;;;;;13.00;96452.00;;;;5113058;28;20479;-49
2022/08/08 04:39:38;;;;;;;0.70;0.70;;;;;13.00;96464.00;;;;5113022;28;20194;-49
2022/08/08 04:42:06;;;;;;;0.73;0.73;;;;;13.10;96464.00;;;;5112888;28;20671;-53
2022/08/08 04:44:33;;;;;;;0.50;0.50;;;;;13.10;96476.00;;;;5113000;28;20213;-49
2022/08/08 04:47:00;;;;;;;0.77;0.77;;;;;13.10;96470.00;;;;5113037;28;20316;-48
2022/08/08 04:49:27;;;;;;;0.50;0.50;;;;;13.20;96469.00;;;;5095045;28;20230;-48
2022/08/08 04:51:54;;;;;;;0.50;0.50;;;;;13.30;96469.00;;;;5113085;28;20198;-53
2022/08/08 04:54:21;;;;;;;0.83;0.83;;;;;13.30;96478.00;;;;5112971;28;20278;-54
2022/08/08 04:56:48;;;;;;;1.17;0.90;;;;;13.30;96442.00;;;;5113016;28;20198;-49
2022/08/08 04:59:15;;;;;;;0.60;0.60;;;;;13.30;96476.00;;;;5094910;28;20689;-48
2022/08/08 05:01:42;;;;;;;0.67;0.67;;;;;13.30;96485.00;;;;5112891;28;20710;-49
2022/08/08 05:04:09;;;;;;;1.17;1.17;;;;;13.30;96488.00;;;;5114781;28;20497;-48
2022/08/08 05:06:37;;;;;;;0.50;0.50;;;;;13.40;96484.00;;;;5098440;28;20222;-50
2022/08/08 05:09:04;;;;;;;0.60;0.60;;;;;13.70;96491.00;;;;5116139;28;20513;-48
2022/08/08 05:11:33;;;;;;;0.77;0.77;;;;;14.00;96499.00;;;;5116083;28;20221;-48
2022/08/08 05:14:02;;;;;;;0.70;0.70;;;;;14.10;96498.00;;;;5098153;28;20202;-49
2022/08/08 05:16:29;;;;;;;1.10;1.10;;;;;14.20;96511.00;;;;5115885;28;20630;-49
2022/08/08 05:18:56;;;;;;;0.50;0.50;;;;;14.20;96503.00;;;;5116028;28;20198;-48
2022/08/08 05:21:25;;;;;;;0.73;0.73;;;;;14.30;96508.00;;;;5116025;28;20228;-48
2022/08/08 05:23:53;;;;;;;0.93;0.93;;;;;14.30;96512.00;;;;5097824;28;20253;-49
2022/08/08 05:26:20;;;;;;;0.67;0.67;;;;;14.20;96512.00;;;;5097959;28;20210;-49
2022/08/08 05:28:47;;;;;;;0.40;0.40;;;;;14.10;96515.00;;;;5115887;28;20572;-49
2022/08/08 05:31:17;;;;;;;0.77;0.77;;;;;14.00;96511.00;;;;5097985;28;20214;-50
2022/08/08 05:33:43;;;;;;;0.40;0.40;;;;;14.00;96515.00;;;;5116017;28;20232;-52
2022/08/08 05:36:14;;;;;;;0.70;0.70;;;;;14.10;96513.00;;;;5116009;28;20190;-50
2022/08/08 05:38:46;;;;;;;2.17;1.97;;;;;14.30;96520.00;;;;5115916;28;20277;-49
2022/08/08 05:41:16;;;;;;;0.70;0.70;;;;;14.40;96522.00;;;;5115933;28;20198;-50
2022/08/08 05:43:46;;;;;;;0.53;0.53;;;;;14.30;96515.00;;;;5115758;28;20547;-49
2022/08/08 05:46:14;;;;;;;0.83;0.83;;;;;14.20;96515.00;;;;5115719;28;20290;-49
2022/08/08 05:48:41;;;;;;;0.63;0.63;;;;;14.20;96524.00;;;;5115667;28;20214;-49
2022/08/08 05:51:09;;;;;;;0.87;0.87;;;;;14.30;96520.00;;;;5115488;28;20225;-48
2022/08/08 05:53:36;;;;;;;0.60;0.60;;;;;14.40;96526.00;;;;5115397;28;20204;-48
2022/08/08 05:56:07;;;;;;;0.80;0.80;;;;;14.50;96521.00;;;;5097254;28;20217;-49
2022/08/08 05:58:39;;;;;;;0.63;0.63;;;;;14.60;96520.00;;;;5115254;28;20668;-49
2022/08/08 06:01:10;;;;;;;0.60;0.60;;;;;14.50;96518.00;;;;5115196;28;20644;-48
2022/08/08 06:03:39;;;;;;;0.60;0.60;;;;;14.70;96529.00;;;;5115305;28;20245;-49
2022/08/08 06:06:06;;;;;;;1.07;0.97;;;;;14.80;96522.00;;;;5115259;28;20301;-48
2022/08/08 06:08:36;;;;;;;0.50;0.50;;;;;14.90;96531.00;;;;5115151;28;20194;-48
2022/08/08 06:11:04;;;;;;;0.60;0.60;;;;;14.90;96530.00;;;;5115110;28;20311;-48
2022/08/08 06:13:31;;;;;;;0.50;0.50;;;;;15.00;96535.00;;;;5115585;28;20208;-54
2022/08/08 06:15:59;;;;;;;0.77;0.77;;;;;15.10;96535.00;;;;5114833;28;20182;-48
2022/08/08 06:18:28;;;;;;;1.10;1.10;;;;;15.30;96526.00;;;;5115012;28;20304;-49
2022/08/08 06:20:58;;;;;;;0.63;0.63;;;;;15.30;96537.00;;;;5114939;28;20186;-48
2022/08/08 06:23:26;;;;;;;0.60;0.60;;;;;15.50;96535.00;;;;5115064;28;20265;-48
2022/08/08 06:26:00;;;;;;;0.70;0.70;;;;;15.60;96539.00;;;;5096934;28;20689;-49
2022/08/08 06:28:30;;;;;;;0.60;0.60;;;;;15.70;96545.00;;;;5097053;28;20209;-48
2022/08/08 06:31:00;;;;;;;0.43;0.43;;;;;15.90;96545.00;;;;5114814;28;20645;-48
2022/08/08 06:33:35;;;;;;;1.03;0.90;;;;;15.70;96543.00;;;;5114823;28;20201;-48
2022/08/08 06:36:04;;;;;;;0.50;0.50;;;;;16.10;96545.00;;;;5114826;28;20255;-48
2022/08/08 06:38:36;;;;;;;0.70;0.70;;;;;16.20;96555.00;;;;5114905;28;20202;-49
2022/08/08 06:41:11;;;;;;;0.60;0.60;;;;;16.30;96553.00;;;;5114768;28;20205;-49
2022/08/08 06:43:42;;;;;;;0.50;0.50;;;;;16.40;96550.00;;;;5114638;28;20225;-48
2022/08/08 06:46:10;;;;;;;0.63;0.63;;;;;16.50;96557.00;;;;5096749;28;20463;-48
2022/08/08 06:48:37;;;;;;;0.40;0.40;;;;;16.60;96551.00;;;;5114715;28;20221;-49
2022/08/08 06:51:04;;;;;;;1.53;1.43;;;;;16.80;96550.00;;;;5114802;28;20284;-48
2022/08/08 06:53:31;;;;;;;1.30;1.30;;;;;16.90;96558.00;;;;5096560;28;20296;-48
2022/08/08 06:55:58;;;;;;;0.63;0.63;;;;;17.10;96556.00;;;;5096725;28;20213;-49
2022/08/08 06:58:26;;;;;;;0.50;0.50;;;;;17.20;96555.00;;;;5114708;28;20194;-49
2022/08/08 07:00:53;;;;;;;4.27;0.80;;;;;17.30;96560.00;;;;5096730;28;20226;-48
2022/08/08 07:03:32;;;;;;;0.60;0.60;;;;;17.60;96560.00;;;;5114469;28;20256;-48
2022/08/08 07:06:02;;;;;;;0.70;0.70;;;;;17.70;96569.00;;;;5114624;28;20224;-48
2022/08/08 07:08:33;;;;;;;0.50;0.50;;;;;17.90;96569.00;;;;5114474;28;20633;-49
2022/08/08 07:11:04;;;;;;;0.60;0.60;;;;;17.90;96563.00;;;;5114328;28;20194;-48
2022/08/08 07:13:41;;;;;;;0.50;0.50;;;;;18.10;96559.00;;;;5114164;28;20220;-48
2022/08/08 07:16:16;;;;;;;0.50;0.50;;;;;18.30;96566.00;;;;5114317;28;20227;-48
2022/08/08 07:19:04;;;;;;;0.40;0.40;;;;;18.60;96558.00;;;;5096161;28;20599;-48
2022/08/08 07:21:42;;;;;;;0.40;0.40;;;;;18.80;96564.00;;;;5114230;28;20498;-49
2022/08/08 07:24:17;;;;;;;0.40;0.40;;;;;18.80;96562.00;;;;5114152;28;20217;-51
2022/08/08 07:26:49;;;;;;;0.67;0.67;;;;;19.00;96565.00;;;;5113486;28;20197;-53
2022/08/08 07:29:20;;;;;;;0.50;0.50;;;;;19.20;96571.00;;;;5114295;28;20213;-50
2022/08/08 07:31:50;;;;;;;0.90;0.90;;;;;19.20;96562.00;;;;5114233;28;20194;-49
2022/08/08 07:34:18;;;;;;;0.50;0.50;;;;;19.40;96561.00;;;;5114031;28;20228;-49
2022/08/08 07:36:48;;;;;;;0.60;0.60;;;;;19.50;96573.00;;;;5114108;28;20686;-48
2022/08/08 07:39:16;;;;;;;5.33;1.53;;;;;19.60;96567.00;;;;5114083;28;20218;-49
2022/08/08 07:41:45;;;;;;;0.50;0.50;;;;;19.90;96568.00;;;;5113943;28;20213;-49
2022/08/08 07:44:16;;;;;;;0.60;0.60;;;;;20.20;96562.00;;;;5114033;28;20272;-49
2022/08/08 07:46:43;;;;;;;0.60;0.60;;;;;20.50;96572.00;;;;5113914;28;20217;-49
2022/08/08 07:49:12;;;;;;;0.40;0.40;;;;;20.70;96580.00;;;;5113840;28;20190;-49
2022/08/08 07:51:41;;;;;;;0.50;0.50;;;;;20.60;96576.00;;;;5113840;28;20543;-48
2022/08/08 07:54:17;;;;;;;0.60;0.60;;;;;20.80;96582.00;;;;5113638;28;20307;-52
2022/08/08 07:56:52;;;;;;;0.50;0.50;;;;;20.90;96568.00;;;;5113763;28;20356;-48
2022/08/08 07:59:22;;;;;;;0.63;0.63;;;;;21.20;96580.00;;;;5113429;28;20258;-49
2022/08/08 08:01:56;;;;;;;0.60;0.60;;;;;21.50;96584.00;;;;5113488;28;20272;-49
2022/08/08 08:04:29;;;;;;;0.80;0.80;;;;;21.40;96578.00;;;;5113481;28;20224;-50
2022/08/08 08:06:59;;;;;;;1.30;1.20;;;;;21.50;96576.00;;;;5113527;28;20228;-47
2022/08/08 08:09:30;;;;;;;0.60;0.60;;;;;21.70;96587.00;;;;5113363;28;20221;-47
2022/08/08 08:12:00;;;;;;;0.73;0.73;;;;;21.70;96580.00;;;;5113506;28;20622;-47
2022/08/08 08:14:37;;;;;;;0.50;0.50;;;;;21.80;96584.00;;;;5113298;28;20194;-47
2022/08/08 08:17:06;;;;;;;0.50;0.50;;;;;21.90;96592.00;;;;5113464;28;20265;-48
2022/08/08 08:19:33;;;;;;;0.40;0.40;;;;;21.90;96583.00;;;;5095392;28;20538;-51
2022/08/08 08:22:00;;;;;;;0.40;0.40;;;;;22.10;96585.00;;;;5113281;28;20201;-54
2022/08/08 08:24:27;;;;;;;0.70;0.70;;;;;22.10;96586.00;;;;5113338;28;20296;-48
2022/08/08 08:26:54;;;;;;;0.60;0.60;;;;;22.10;96592.00;;;;5113327;28;20216;-49
2022/08/08 08:29:21;;;;;;;0.63;0.63;;;;;22.20;96595.00;;;;5113366;28;20194;-49
2022/08/08 08:31:48;;;;;;;0.52;0.52;;;;;22.40;96588.00;;;;5113291;28;20229;-49
2022/08/08 08:34:15;;;;;;;0.63;0.63;;;;;22.50;96594.00;;;;5113323;28;20244;-50
2022/08/08 08:36:43;;;;;;;0.50;0.50;;;;;22.50;96591.00;;;;5113087;28;20197;-49
2022/08/08 08:39:11;;;;;;;1.30;1.08;;;;;22.60;96593.00;;;;5115293;28;20232;-49
2022/08/08 08:41:40;;;;;;;0.40;0.40;;;;;22.70;96597.00;;;;5116643;28;20190;-48
2022/08/08 08:44:07;;;;;;;0.50;0.50;;;;;22.70;96590.00;;;;5116316;28;20298;-48
2022/08/08 08:46:36;;;;;;;0.50;0.50;;;;;22.90;96596.00;;;;5116481;28;20190;-49
2022/08/08 08:49:05;;;;;;;0.60;0.60;;;;;23.10;96591.00;;;;5116439;28;20217;-47
2022/08/08 08:51:37;;;;;;;0.50;0.50;;;;;23.00;96587.00;;;;5116418;28;20545;-49
2022/08/08 08:54:06;;;;;;;0.60;0.60;;;;;23.00;96592.00;;;;5116470;28;20258;-48
2022/08/08 08:56:35;;;;;;;11.32;1.05;;;;;23.10;96586.00;;;;5116529;28;20193;-48
2022/08/08 08:59:03;;;;;;;0.47;0.47;;;;;23.20;96587.00;;;;5116399;28;20206;-48
2022/08/08 09:01:33;;;;;;;0.60;0.60;;;;;23.30;96588.00;;;;5116131;28;20661;-49
2022/08/08 09:04:06;;;;;;;0.50;0.50;;;;;23.40;96592.00;;;;5116221;28;20690;-48
2022/08/08 09:06:37;;;;;;;0.68;0.68;;;;;23.40;96590.00;;;;5116198;28;20657;-49
2022/08/08 09:09:07;;;;;;;0.45;0.45;;;;;23.70;96595.00;;;;5116175;28;20206;-52
2022/08/08 09:11:35;;;;;;;0.43;0.43;;;;;23.70;96598.00;;;;5098393;28;20212;-48
2022/08/08 09:14:08;;;;;;;0.40;0.40;;;;;23.80;96595.00;;;;5098139;28;20198;-48
2022/08/08 09:16:35;;;;;;;0.52;0.52;;;;;23.90;96601.00;;;;5116223;28;20292;-48
2022/08/08 09:19:02;;;;;;;0.47;0.47;;;;;24.30;96601.00;;;;5116102;28;20224;-54
2022/08/08 09:21:30;;;;;;;0.60;0.60;;;24.70;26.90;23.90;96604.00;;;;5116117;28;20194;-48
2022/08/08 09:23:57;;;;;;;0.73;0.73;;;24.40;27.50;24.00;96601.00;;;;5116042;28;20225;-48
2022/08/08 09:26:41;;;;;;;0.50;0.50;;;24.20;27.90;24.10;96600.00;;;;5116088;28;20257;-50
2022/08/08 09:29:19;;;;;;;0.88;0.55;;;24.50;28.00;24.10;96597.00;;;;5116121;28;20233;-48
2022/08/08 09:31:52;;;;;;;1.20;1.20;;;;;24.20;96598.00;;;;5116149;28;20227;-47
2022/08/08 09:34:23;;;;;;;0.50;0.50;;;24.60;27.70;24.30;96592.00;;;;5098606;28;20225;-55
2022/08/08 09:37:01;;;;;;;0.80;0.80;;;24.70;27.90;24.50;96595.00;;;;5116469;28;20277;-48
2022/08/08 09:39:41;;;;;;;0.60;0.60;;;24.80;28.30;24.50;96593.00;;;;5099064;28;20209;-49
2022/08/08 09:42:15;;;;;;;0.60;0.60;;;24.80;27.40;24.70;96595.00;;;;5115937;28;20257;-48
2022/08/08 09:45:01;;;;;;;3.72;1.05;;;24.90;27.50;24.80;96594.00;;;;5098005;28;20284;-48
2022/08/08 09:47:33;;;;;;;0.57;0.57;;;25.10;26.30;25.20;96607.00;;;;5097951;28;20237;-47
2022/08/08 09:50:05;;;;;;;0.85;0.85;;;25.40;25.80;25.10;96596.00;;;;5115905;28;20289;-49
2022/08/08 09:52:34;;;;;;;0.45;0.45;;;25.50;24.90;25.10;96588.00;;;;5118591;28;20544;-49
2022/08/08 09:55:02;;;;;;;0.43;0.43;;;25.50;24.40;25.10;96594.00;;;;5098787;28;20237;-48
2022/08/08 09:57:34;;;;;;;0.40;0.40;;;25.50;24.70;25.20;96590.00;;;;5115570;28;20205;-49
2022/08/08 10:00:06;;;;;;;0.47;0.47;;;25.60;24.00;25.60;96589.00;;;;5115698;28;20294;-49
2022/08/08 10:02:37;;;;;;;0.50;0.50;;;25.80;23.00;25.50;96593.00;;;;5115355;28;20308;-49
2022/08/08 10:05:08;;;;;;;0.65;0.65;;;25.90;21.90;25.30;96593.00;;;;5097659;28;20302;-49
2022/08/08 10:07:35;;;;;;;0.60;0.60;;;25.70;23.20;25.50;96591.00;;;;5097293;28;20202;-47
2022/08/08 10:10:04;;;;;;;0.43;0.43;;;25.90;21.90;25.60;96581.00;;;;5115197;28;20278;-48
2022/08/08 10:12:36;;;;;;;0.60;0.60;;;26.00;22.30;25.40;96588.00;;;;5115239;28;20194;-48
2022/08/08 10:15:07;;;;;;;0.63;0.63;;;25.80;22.30;25.10;96577.00;;;;5115305;28;20247;-49
2022/08/08 10:17:44;;;;;;;4.03;1.02;;;25.50;23.60;25.40;96595.00;;;;5097514;28;20692;-47
2022/08/08 10:20:12;;;;;;;0.80;0.80;;;25.70;22.60;25.70;96588.00;;;;5115313;28;20193;-48
2022/08/08 10:22:52;;;;;;;0.50;0.50;;;25.90;22.20;25.70;96591.00;;;;5115072;28;20229;-48
2022/08/08 10:25:21;;;;;;;0.82;0.82;;;26.00;22.50;25.60;96581.00;;;;5115304;28;20221;-48
2022/08/08 10:27:52;;;;;;;0.50;0.50;;;26.00;22.50;25.90;96567.00;;;;5115052;28;20264;-48
2022/08/08 10:30:25;;;;;;;0.50;0.50;;;26.20;22.10;25.70;96570.00;;;;5115118;28;20285;-48
2022/08/08 10:32:58;;;;;;;0.50;0.50;;;26.10;22.10;25.80;96565.00;;;;5114984;28;20224;-52
2022/08/08 10:35:28;;;;;;;0.70;0.70;;;26.20;21.70;26.20;96575.00;;;;5114875;28;20338;-49
2022/08/08 10:37:57;;;;;;;0.50;0.50;;;26.40;21.40;26.10;96574.00;;;;5114875;28;20190;-48
2022/08/08 10:40:26;;;;;;;0.43;0.43;;;26.40;21.30;26.30;96579.00;;;;5114798;28;20228;-48
2022/08/08 10:42:58;;;;;;;0.50;0.50;;;26.60;20.90;26.30;96577.00;;;;5114652;28;20210;-48
2022/08/08 10:45:26;;;;;;;0.50;0.50;;;26.60;21.60;26.40;96577.00;;;;5114556;28;20253;-47
2022/08/08 10:47:57;;;;;;;0.45;0.45;;;26.70;21.00;26.40;96575.00;;;;5096768;28;20275;-48
2022/08/08 10:50:32;;;;;;;23.42;0.80;;;26.70;20.60;26.50;96568.00;;;;5096607;28;20229;-49
2022/08/08 10:53:04;;;;;;;0.50;0.50;;;26.80;20.60;26.80;96573.00;;;;5114371;28;20268;-49
2022/08/08 10:55:36;;;;;;;0.63;0.63;;;27.00;20.70;26.90;96563.00;;;;5114577;28;20190;-49
2022/08/08 10:58:07;;;;;;;0.50;0.50;;;27.20;20.10;27.00;96565.00;;;;5114698;28;20266;-48
2022/08/08 11:00:41;;;;;;;0.50;0.50;;;27.20;19.90;27.10;96571.00;;;;5113755;28;20652;-48
2022/08/08 11:03:13;;;;;;;0.60;0.60;;;27.30;19.60;27.20;96567.00;;;;5114291;28;20657;-48
2022/08/08 11:05:47;;;;;;;0.45;0.45;;;27.50;19.40;27.40;96557.00;;;;5114474;28;20258;-48
2022/08/08 11:08:21;;;;;;;0.65;0.65;;;27.50;18.60;27.20;96564.00;;;;5114385;28;20221;-47
2022/08/08 11:10:48;;;;;;;0.43;0.43;;;27.50;19.10;26.90;96562.00;;;;5114484;28;20272;-48
2022/08/08 11:13:20;;;;;;;0.77;0.77;;;27.30;20.00;27.30;96559.00;;;;5114342;28;20268;-48
2022/08/08 11:15:48;;;;;;;0.40;0.40;;;27.50;19.10;27.30;96551.00;;;;5114296;28;20254;-48
2022/08/08 11:18:17;;;;;;;0.70;0.70;;;27.60;19.80;27.40;96556.00;;;;5114198;28;20186;-52
2022/08/08 11:20:49;;;;;;;0.50;0.50;;;27.60;19.20;27.70;96572.00;;;;5114343;28;20206;-49
2022/08/08 11:23:20;;;;;;;1.00;1.00;;;27.80;19.70;27.20;96548.00;;;;5114097;28;20220;-48
2022/08/08 11:25:52;;;;;;;0.60;0.60;;;27.50;19.90;27.70;96543.00;;;;5114258;28;20230;-51
2022/08/08 11:28:24;;;;;;;0.60;0.60;;;27.80;20.20;27.80;96543.00;;;;5114282;28;20226;-49
2022/08/08 11:30:56;;;;;;;0.75;0.75;;;28.00;20.00;27.70;96545.00;;;;5114021;28;20249;-47
2022/08/08 11:33:26;;;;;;;0.65;0.65;;;28.00;19.90;27.60;96552.00;;;;5096170;28;20194;-49
2022/08/08 11:35:55;;;;;;;0.65;0.65;;;27.90;19.10;27.60;96542.00;;;;5114054;28;20213;-51
2022/08/08 11:38:25;;;;;;;0.47;0.47;;;27.90;19.50;27.70;96549.00;;;;5114029;28;20277;-50
2022/08/08 11:40:55;;;;;;;0.70;0.70;;;28.00;19.50;27.70;96543.00;;;;5114000;28;20228;-48
2022/08/08 11:43:24;;;;;;;0.50;0.50;;;27.90;18.80;28.20;96553.00;;;;5095986;28;20387;-48
2022/08/08 11:45:53;;;;;;;0.90;0.90;;;28.30;19.20;28.40;96540.00;;;;5114037;28;20677;-49
2022/08/08 11:48:21;;;;;;;0.60;0.60;;;28.50;18.10;28.70;96543.00;;;;5113805;28;20301;-48
2022/08/08 11:50:49;;;;;;;0.65;0.65;;;28.80;17.40;28.80;96543.00;;;;5113893;28;20314;-48
2022/08/08 11:53:16;;;;;;;0.45;0.45;;;29.00;17.90;28.70;96530.00;;;;5113887;28;20289;-49
2022/08/08 11:55:51;;;;;;;0.50;0.50;;;29.00;17.20;28.20;96536.00;;;;5113916;28;20185;-48
2022/08/08 11:58:21;;;;;;;0.60;0.60;;;28.60;17.90;28.50;96528.00;;;;5113767;28;20266;-49
2022/08/08 12:00:52;;;;;;;0.50;0.50;;;28.70;18.80;28.40;96527.00;;;;5096005;28;20575;-50
2022/08/08 12:03:23;;;;;;;0.70;0.70;;;28.60;18.60;28.60;96520.00;;;;5095801;28;20302;-54
2022/08/08 12:05:51;;;;;;;0.80;0.80;;;28.80;18.30;28.50;96526.00;;;;5113783;28;20231;-52
2022/08/08 12:08:31;;;;;;;0.52;0.52;;;28.80;18.40;28.60;96524.00;;;;5113605;28;20697;-49
2022/08/08 12:11:01;;;;;;;0.50;0.50;;;28.90;18.20;28.40;96521.00;;;;5113598;28;20308;-49
2022/08/08 12:13:28;;;;;;;1.30;0.82;;;28.60;18.80;29.10;96518.00;;;;5116063;28;20193;-49
2022/08/08 12:16:07;;;;;;;1.95;1.02;;;29.10;19.30;29.40;96526.00;;;;5117067;28;20285;-49
2022/08/08 12:18:44;;;;;;;0.50;0.50;;;29.40;18.50;29.50;96517.00;;;;5117225;28;20346;-49
2022/08/08 12:21:22;;;;;;;0.65;0.65;;;29.50;19.10;29.30;96513.00;;;;5117058;28;20276;-49
2022/08/08 12:24:00;;;;;;;0.60;0.60;;;29.40;18.80;29.50;96541.00;;;;5116908;28;20263;-49
2022/08/08 12:26:37;;;;;;;0.70;0.70;;;29.60;18.20;29.40;96550.00;;;;5117149;28;20606;-49
2022/08/08 12:29:24;;;;;;;0.77;0.77;;;29.60;18.70;28.80;96516.00;;;;5116848;28;20245;-49
2022/08/08 12:32:05;;;;;;;0.60;0.60;;;29.20;19.30;29.40;96523.00;;;;5098924;28;20198;-49
2022/08/08 12:34:41;;;;;;;0.60;0.60;;;29.40;19.00;29.60;96526.00;;;;5116974;28;20218;-49
2022/08/08 12:37:11;;;;;;;0.75;0.75;;;29.80;18.20;29.70;96516.00;;;;5116869;28;20204;-49